sensor_id;sensor_type;location;lat;lon;timestamp;pressure;altitude;pressure_sealevel;temperature;humidity
83246;BME280;73140;46.754;17.714;2024-02-16T00:01:42;100146.38;;;4.67;89.57
83246;BME280;73140;46.754;17.714;2024-02-16T00:04:07;100175.50;;;4.74;89.11
83246;BME280;73140;46.754;17.714;2024-02-16T00:06:33;100134.63;;;4.78;87.86
83246;BME280;73140;46.754;17.714;2024-02-16T00:09:01;100234.19;;;5.19;88.26
83246;BME280;73140;46.754;17.714;2024-02-16T00:11:27;100187.22;;;5.03;89.15
83246;BME280;73140;46.754;17.714;2024-02-16T00:13:54;100110.72;;;4.50;89.63
83246;BME280;73140;46.754;17.714;2024-02-16T00:16:20;100101.31;;;4.55;89.45
83246;BME280;73140;46.754;17.714;2024-02-16T00:18:46;100108.97;;;4.71;90.45
83246;BME280;73140;46.754;17.714;2024-02-16T00:21:13;100170.78;;;5.07;89.58
83246;BME280;73140;46.754;17.714;2024-02-16T00:23:39;100144.34;;;4.81;89.15
83246;BME280;73140;46.754;17.714;2024-02-16T00:26:07;100182.34;;;5.12;88.85
83246;BME280;73140;46.754;17.714;2024-02-16T00:28:33;100167.31;;;5.08;89.21
83246;BME280;73140;46.754;17.714;2024-02-16T00:30:59;100179.72;;;5.12;89.39
83246;BME280;73140;46.754;17.714;2024-02-16T00:33:25;100125.00;;;4.99;89.12
83246;BME280;73140;46.754;17.714;2024-02-16T00:35:53;100118.03;;;5.00;88.30
83246;BME280;73140;46.754;17.714;2024-02-16T00:38:19;100162.28;;;5.35;88.33
83246;BME280;73140;46.754;17.714;2024-02-16T00:40:45;100174.19;;;5.27;88.07
83246;BME280;73140;46.754;17.714;2024-02-16T00:43:13;100138.28;;;5.24;87.77
83246;BME280;73140;46.754;17.714;2024-02-16T00:45:39;100120.34;;;5.13;85.91
83246;BME280;73140;46.754;17.714;2024-02-16T00:48:09;100116.03;;;5.15;86.25
83246;BME280;73140;46.754;17.714;2024-02-16T00:50:36;100163.31;;;5.39;86.13
83246;BME280;73140;46.754;17.714;2024-02-16T00:53:02;100111.78;;;5.18;86.28
83246;BME280;73140;46.754;17.714;2024-02-16T00:55:29;100160.88;;;5.43;85.66
83246;BME280;73140;46.754;17.714;2024-02-16T00:57:56;100175.41;;;5.57;85.53
83246;BME280;73140;46.754;17.714;2024-02-16T01:00:23;100130.19;;;5.41;85.26
83246;BME280;73140;46.754;17.714;2024-02-16T01:02:49;100166.78;;;5.60;85.22
83246;BME280;73140;46.754;17.714;2024-02-16T01:05:15;100185.47;;;5.69;84.34
83246;BME280;73140;46.754;17.714;2024-02-16T01:07:43;100147.22;;;5.52;84.92
83246;BME280;73140;46.754;17.714;2024-02-16T01:10:09;100063.19;;;5.04;84.63
83246;BME280;73140;46.754;17.714;2024-02-16T01:12:35;100135.00;;;5.52;83.36
83246;BME280;73140;46.754;17.714;2024-02-16T01:15:01;100144.69;;;5.55;83.79
83246;BME280;73140;46.754;17.714;2024-02-16T01:17:29;100107.56;;;5.44;83.80
83246;BME280;73140;46.754;17.714;2024-02-16T01:19:55;100120.72;;;5.46;83.67
83246;BME280;73140;46.754;17.714;2024-02-16T01:22:22;100154.19;;;5.51;82.66
83246;BME280;73140;46.754;17.714;2024-02-16T01:24:48;100109.00;;;5.36;84.41
83246;BME280;73140;46.754;17.714;2024-02-16T01:27:15;100183.81;;;5.71;83.46
83246;BME280;73140;46.754;17.714;2024-02-16T01:29:42;100170.94;;;5.55;83.82
83246;BME280;73140;46.754;17.714;2024-02-16T01:32:08;100165.91;;;5.61;82.61
83246;BME280;73140;46.754;17.714;2024-02-16T01:34:35;100124.56;;;5.32;83.39
83246;BME280;73140;46.754;17.714;2024-02-16T01:37:01;100159.84;;;5.40;83.58
83246;BME280;73140;46.754;17.714;2024-02-16T01:39:27;100147.75;;;5.21;84.72
83246;BME280;73140;46.754;17.714;2024-02-16T01:41:53;100169.97;;;5.31;84.80
83246;BME280;73140;46.754;17.714;2024-02-16T01:44:19;100181.06;;;5.23;85.00
83246;BME280;73140;46.754;17.714;2024-02-16T01:46:45;100169.34;;;5.15;86.25
83246;BME280;73140;46.754;17.714;2024-02-16T01:49:12;100160.06;;;5.01;85.73
83246;BME280;73140;46.754;17.714;2024-02-16T01:51:42;100185.88;;;5.13;85.29
83246;BME280;73140;46.754;17.714;2024-02-16T01:54:08;100156.72;;;4.85;85.05
83246;BME280;73140;46.754;17.714;2024-02-16T01:56:34;100185.28;;;4.99;86.47
83246;BME280;73140;46.754;17.714;2024-02-16T01:59:00;100082.66;;;4.47;86.72
83246;BME280;73140;46.754;17.714;2024-02-16T02:01:26;100193.13;;;4.98;87.17
83246;BME280;73140;46.754;17.714;2024-02-16T02:03:52;100100.97;;;4.46;87.04
83246;BME280;73140;46.754;17.714;2024-02-16T02:06:18;100177.03;;;4.90;86.79
83246;BME280;73140;46.754;17.714;2024-02-16T02:08:45;100102.19;;;4.54;87.55
83246;BME280;73140;46.754;17.714;2024-02-16T02:11:11;100194.44;;;4.88;88.11
83246;BME280;73140;46.754;17.714;2024-02-16T02:13:37;100156.63;;;4.82;87.48
83246;BME280;73140;46.754;17.714;2024-02-16T02:16:04;100186.81;;;4.94;87.15
83246;BME280;73140;46.754;17.714;2024-02-16T02:18:31;100107.13;;;4.48;87.39
83246;BME280;73140;46.754;17.714;2024-02-16T02:20:57;100173.94;;;4.78;87.43
83246;BME280;73140;46.754;17.714;2024-02-16T02:23:25;100129.09;;;4.51;86.73
83246;BME280;73140;46.754;17.714;2024-02-16T02:25:51;100098.91;;;4.39;86.87
83246;BME280;73140;46.754;17.714;2024-02-16T02:28:17;100069.81;;;4.12;86.51
83246;BME280;73140;46.754;17.714;2024-02-16T02:30:43;100158.44;;;4.63;86.67
83246;BME280;73140;46.754;17.714;2024-02-16T02:33:11;100150.25;;;4.56;86.94
83246;BME280;73140;46.754;17.714;2024-02-16T02:35:38;100162.75;;;4.82;85.16
83246;BME280;73140;46.754;17.714;2024-02-16T02:38:04;100159.97;;;5.00;84.23
83246;BME280;73140;46.754;17.714;2024-02-16T02:40:32;100089.38;;;4.82;83.70
83246;BME280;73140;46.754;17.714;2024-02-16T02:42:58;100034.44;;;4.63;82.00
83246;BME280;73140;46.754;17.714;2024-02-16T02:45:24;100136.47;;;5.23;82.39
83246;BME280;73140;46.754;17.714;2024-02-16T02:47:51;100167.34;;;5.53;83.03
83246;BME280;73140;46.754;17.714;2024-02-16T02:50:17;100168.53;;;5.61;81.46
83246;BME280;73140;46.754;17.714;2024-02-16T02:52:44;100167.28;;;5.73;80.61
83246;BME280;73140;46.754;17.714;2024-02-16T02:55:39;100157.78;;;5.77;80.80
83246;BME280;73140;46.754;17.714;2024-02-16T02:58:05;100129.44;;;5.67;80.11
83246;BME280;73140;46.754;17.714;2024-02-16T03:00:31;100155.66;;;5.89;79.76
83246;BME280;73140;46.754;17.714;2024-02-16T03:02:57;100132.03;;;5.89;79.56
83246;BME280;73140;46.754;17.714;2024-02-16T03:05:23;100124.84;;;5.85;79.26
83246;BME280;73140;46.754;17.714;2024-02-16T03:07:49;100171.41;;;6.11;78.30
83246;BME280;73140;46.754;17.714;2024-02-16T03:10:15;100078.78;;;5.69;78.92
83246;BME280;73140;46.754;17.714;2024-02-16T03:12:48;100134.75;;;5.91;78.60
83246;BME280;73140;46.754;17.714;2024-02-16T03:15:15;100138.59;;;5.78;78.75
83246;BME280;73140;46.754;17.714;2024-02-16T03:17:41;100113.00;;;5.72;79.23
83246;BME280;73140;46.754;17.714;2024-02-16T03:20:08;100113.91;;;5.73;78.87
83246;BME280;73140;46.754;17.714;2024-02-16T03:22:34;100125.13;;;5.69;79.31
83246;BME280;73140;46.754;17.714;2024-02-16T03:25:01;100097.84;;;5.64;79.51
83246;BME280;73140;46.754;17.714;2024-02-16T03:27:27;100164.69;;;5.96;79.51
83246;BME280;73140;46.754;17.714;2024-02-16T03:29:54;100125.28;;;5.73;78.54
83246;BME280;73140;46.754;17.714;2024-02-16T03:32:20;100143.94;;;5.81;78.64
83246;BME280;73140;46.754;17.714;2024-02-16T03:34:47;100171.47;;;5.91;79.03
83246;BME280;73140;46.754;17.714;2024-02-16T03:37:13;100084.88;;;5.45;78.51
83246;BME280;73140;46.754;17.714;2024-02-16T03:39:39;100150.78;;;5.76;79.55
83246;BME280;73140;46.754;17.714;2024-02-16T03:42:05;100130.88;;;5.59;80.91
83246;BME280;73140;46.754;17.714;2024-02-16T03:44:31;100170.03;;;5.77;79.97
83246;BME280;73140;46.754;17.714;2024-02-16T03:46:58;100153.88;;;5.66;78.85
83246;BME280;73140;46.754;17.714;2024-02-16T03:49:25;100131.16;;;5.66;79.01
83246;BME280;73140;46.754;17.714;2024-02-16T03:51:53;100167.13;;;5.91;79.10
83246;BME280;73140;46.754;17.714;2024-02-16T03:54:19;100172.13;;;6.07;78.30
83246;BME280;73140;46.754;17.714;2024-02-16T03:56:45;100134.34;;;5.82;79.27
83246;BME280;73140;46.754;17.714;2024-02-16T03:59:11;100164.53;;;5.93;79.72
83246;BME280;73140;46.754;17.714;2024-02-16T04:01:37;100110.09;;;5.65;79.45
83246;BME280;73140;46.754;17.714;2024-02-16T04:04:05;100185.84;;;6.00;78.03
83246;BME280;73140;46.754;17.714;2024-02-16T04:06:31;100158.66;;;5.98;78.47
83246;BME280;73140;46.754;17.714;2024-02-16T04:08:57;100089.78;;;5.59;78.50
83246;BME280;73140;46.754;17.714;2024-02-16T04:11:23;100059.22;;;5.38;78.58
83246;BME280;73140;46.754;17.714;2024-02-16T04:13:49;100158.41;;;5.92;78.19
83246;BME280;73140;46.754;17.714;2024-02-16T04:16:15;100165.22;;;5.87;78.85
83246;BME280;73140;46.754;17.714;2024-02-16T04:18:41;100108.69;;;5.51;78.62
83246;BME280;73140;46.754;17.714;2024-02-16T04:21:09;100185.63;;;5.72;79.95
83246;BME280;73140;46.754;17.714;2024-02-16T04:23:35;100196.94;;;5.49;80.61
83246;BME280;73140;46.754;17.714;2024-02-16T04:26:01;100148.75;;;5.24;81.00
83246;BME280;73140;46.754;17.714;2024-02-16T04:28:27;100178.81;;;5.33;82.30
83246;BME280;73140;46.754;17.714;2024-02-16T04:30:53;100088.19;;;4.74;82.25
83246;BME280;73140;46.754;17.714;2024-02-16T04:33:20;100178.13;;;5.16;81.35
83246;BME280;73140;46.754;17.714;2024-02-16T04:35:46;100152.75;;;4.94;82.10
83246;BME280;73140;46.754;17.714;2024-02-16T04:38:15;100143.81;;;4.89;82.64
83246;BME280;73140;46.754;17.714;2024-02-16T04:40:41;100144.66;;;4.88;81.85
83246;BME280;73140;46.754;17.714;2024-02-16T04:43:07;100054.13;;;4.33;82.28
83246;BME280;73140;46.754;17.714;2024-02-16T04:45:33;100166.56;;;4.90;82.54
83246;BME280;73140;46.754;17.714;2024-02-16T04:48:03;100123.13;;;4.54;82.50
83246;BME280;73140;46.754;17.714;2024-02-16T04:50:29;100187.53;;;4.90;83.22
83246;BME280;73140;46.754;17.714;2024-02-16T04:52:55;100081.28;;;4.35;83.09
83246;BME280;73140;46.754;17.714;2024-02-16T04:55:23;100124.41;;;4.43;82.70
83246;BME280;73140;46.754;17.714;2024-02-16T04:57:49;100046.09;;;4.07;82.39
83246;BME280;73140;46.754;17.714;2024-02-16T05:00:15;100180.91;;;4.78;82.73
83246;BME280;73140;46.754;17.714;2024-02-16T05:02:41;100169.00;;;4.65;83.39
83246;BME280;73140;46.754;17.714;2024-02-16T05:05:07;100207.41;;;4.64;83.08
83246;BME280;73140;46.754;17.714;2024-02-16T05:07:33;100148.78;;;4.42;83.99
83246;BME280;73140;46.754;17.714;2024-02-16T05:10:01;100177.16;;;4.52;83.58
83246;BME280;73140;46.754;17.714;2024-02-16T05:12:29;100183.25;;;4.51;83.86
83246;BME280;73140;46.754;17.714;2024-02-16T05:14:55;100159.09;;;4.18;84.43
83246;BME280;73140;46.754;17.714;2024-02-16T05:17:21;100144.53;;;4.24;85.56
83246;BME280;73140;46.754;17.714;2024-02-16T05:19:48;100084.59;;;3.91;84.74
83246;BME280;73140;46.754;17.714;2024-02-16T05:22:15;100080.06;;;3.87;84.24
83246;BME280;73140;46.754;17.714;2024-02-16T05:24:42;100083.66;;;3.69;84.58
83246;BME280;73140;46.754;17.714;2024-02-16T05:27:08;100199.84;;;4.32;84.63
83246;BME280;73140;46.754;17.714;2024-02-16T05:29:38;100130.19;;;3.96;84.90
83246;BME280;73140;46.754;17.714;2024-02-16T05:32:04;100137.41;;;3.82;86.00
83246;BME280;73140;46.754;17.714;2024-02-16T05:34:30;100169.50;;;3.97;86.47
83246;BME280;73140;46.754;17.714;2024-02-16T05:37:03;100155.16;;;3.89;86.47
83246;BME280;73140;46.754;17.714;2024-02-16T05:39:29;100157.38;;;3.99;86.09
83246;BME280;73140;46.754;17.714;2024-02-16T05:41:57;100077.13;;;3.60;85.31
83246;BME280;73140;46.754;17.714;2024-02-16T05:44:23;100203.50;;;4.16;86.96
83246;BME280;73140;46.754;17.714;2024-02-16T05:46:51;100123.38;;;3.80;85.71
83246;BME280;73140;46.754;17.714;2024-02-16T05:49:17;100212.59;;;4.24;86.09
83246;BME280;73140;46.754;17.714;2024-02-16T05:51:43;100190.63;;;4.21;85.50
83246;BME280;73140;46.754;17.714;2024-02-16T05:54:29;100183.56;;;3.99;85.87
83246;BME280;73140;46.754;17.714;2024-02-16T05:56:55;100164.91;;;3.92;86.42
83246;BME280;73140;46.754;17.714;2024-02-16T05:59:21;100167.69;;;3.96;86.58
83246;BME280;73140;46.754;17.714;2024-02-16T06:01:47;100187.69;;;3.94;85.89
83246;BME280;73140;46.754;17.714;2024-02-16T06:04:15;100132.66;;;3.73;86.63
83246;BME280;73140;46.754;17.714;2024-02-16T06:06:42;100127.72;;;3.79;87.16
83246;BME280;73140;46.754;17.714;2024-02-16T06:09:08;100209.72;;;4.38;85.92
83246;BME280;73140;46.754;17.714;2024-02-16T06:11:36;100194.53;;;4.50;87.05
83246;BME280;73140;46.754;17.714;2024-02-16T06:14:03;100179.47;;;4.65;86.12
83246;BME280;73140;46.754;17.714;2024-02-16T06:16:29;100112.13;;;4.42;84.26
83246;BME280;73140;46.754;17.714;2024-02-16T06:18:55;100198.91;;;5.11;84.21
83246;BME280;73140;46.754;17.714;2024-02-16T06:21:22;100119.53;;;4.93;83.41
83246;BME280;73140;46.754;17.714;2024-02-16T06:23:48;100210.06;;;5.49;82.76
83246;BME280;73140;46.754;17.714;2024-02-16T06:26:14;100130.84;;;5.14;82.63
83246;BME280;73140;46.754;17.714;2024-02-16T06:28:40;100181.94;;;5.68;83.57
83246;BME280;73140;46.754;17.714;2024-02-16T06:31:06;100179.78;;;5.81;82.74
83246;BME280;73140;46.754;17.714;2024-02-16T06:33:32;100134.69;;;5.67;81.46
83246;BME280;73140;46.754;17.714;2024-02-16T06:35:58;100190.91;;;6.19;80.64
83246;BME280;73140;46.754;17.714;2024-02-16T06:38:26;100159.94;;;6.09;81.30
83246;BME280;73140;46.754;17.714;2024-02-16T06:40:51;100198.25;;;6.28;80.75
83246;BME280;73140;46.754;17.714;2024-02-16T06:43:18;100159.47;;;6.21;79.99
83246;BME280;73140;46.754;17.714;2024-02-16T06:45:44;100193.78;;;6.49;79.53
83246;BME280;73140;46.754;17.714;2024-02-16T06:48:10;100135.28;;;6.30;79.78
83246;BME280;73140;46.754;17.714;2024-02-16T06:50:37;100187.53;;;6.71;79.65
83246;BME280;73140;46.754;17.714;2024-02-16T06:53:03;100169.09;;;6.70;79.47
83246;BME280;73140;46.754;17.714;2024-02-16T06:55:31;100154.09;;;6.67;79.47
83246;BME280;73140;46.754;17.714;2024-02-16T06:57:57;100199.94;;;7.00;79.00
83246;BME280;73140;46.754;17.714;2024-02-16T07:00:23;100204.47;;;7.04;77.84
83246;BME280;73140;46.754;17.714;2024-02-16T07:02:49;100193.41;;;7.14;78.38
83246;BME280;73140;46.754;17.714;2024-02-16T07:05:15;100151.38;;;6.89;77.55
83246;BME280;73140;46.754;17.714;2024-02-16T07:07:43;100202.00;;;7.36;77.24
83246;BME280;73140;46.754;17.714;2024-02-16T07:10:09;100234.06;;;7.51;77.12
83246;BME280;73140;46.754;17.714;2024-02-16T07:12:40;100207.69;;;7.49;77.45
83246;BME280;73140;46.754;17.714;2024-02-16T07:15:07;100197.53;;;7.60;77.13
83246;BME280;73140;46.754;17.714;2024-02-16T07:17:34;100182.75;;;7.65;76.35
83246;BME280;73140;46.754;17.714;2024-02-16T07:20:01;100150.97;;;7.59;75.67
83246;BME280;73140;46.754;17.714;2024-02-16T07:22:29;100202.00;;;7.92;74.33
83246;BME280;73140;46.754;17.714;2024-02-16T07:24:55;100246.34;;;8.35;75.03
83246;BME280;73140;46.754;17.714;2024-02-16T07:27:21;100249.31;;;8.46;73.40
83246;BME280;73140;46.754;17.714;2024-02-16T07:29:48;100243.19;;;8.47;73.48
83246;BME280;73140;46.754;17.714;2024-02-16T07:32:16;100175.84;;;8.28;72.96
83246;BME280;73140;46.754;17.714;2024-02-16T07:34:45;100247.47;;;8.73;73.41
83246;BME280;73140;46.754;17.714;2024-02-16T07:37:11;100241.50;;;8.80;70.90
83246;BME280;73140;46.754;17.714;2024-02-16T07:39:37;100218.53;;;8.76;72.26
83246;BME280;73140;46.754;17.714;2024-02-16T07:42:03;100181.34;;;8.67;70.51
83246;BME280;73140;46.754;17.714;2024-02-16T07:44:29;100217.06;;;8.87;69.73
83246;BME280;73140;46.754;17.714;2024-02-16T07:46:57;100238.88;;;9.15;71.65
83246;BME280;73140;46.754;17.714;2024-02-16T07:49:23;100197.31;;;9.06;72.28
83246;BME280;73140;46.754;17.714;2024-02-16T07:51:49;100203.88;;;9.22;72.49
83246;BME280;73140;46.754;17.714;2024-02-16T07:54:15;100241.63;;;9.54;71.97
83246;BME280;73140;46.754;17.714;2024-02-16T07:56:42;100171.06;;;8.76;74.76
83246;BME280;73140;46.754;17.714;2024-02-16T07:59:08;100226.28;;;9.03;74.66
83246;BME280;73140;46.754;17.714;2024-02-16T08:01:34;100193.63;;;8.34;75.71
83246;BME280;73140;46.754;17.714;2024-02-16T08:04:01;100239.34;;;8.67;76.22
83246;BME280;73140;46.754;17.714;2024-02-16T08:06:27;100191.81;;;8.64;76.62
83246;BME280;73140;46.754;17.714;2024-02-16T08:08:53;100238.69;;;9.06;76.98
83246;BME280;73140;46.754;17.714;2024-02-16T08:11:19;100245.09;;;8.84;75.59
83246;BME280;73140;46.754;17.714;2024-02-16T08:13:46;100214.28;;;8.83;75.50
83246;BME280;73140;46.754;17.714;2024-02-16T08:16:12;100218.69;;;9.15;73.66
83246;BME280;73140;46.754;17.714;2024-02-16T08:18:38;100181.50;;;9.06;75.00
83246;BME280;73140;46.754;17.714;2024-02-16T08:21:06;100248.28;;;9.38;74.23
83246;BME280;73140;46.754;17.714;2024-02-16T08:23:32;100233.81;;;9.22;73.78
83246;BME280;73140;46.754;17.714;2024-02-16T08:25:58;100257.47;;;9.52;73.67
83246;BME280;73140;46.754;17.714;2024-02-16T08:28:24;100181.31;;;9.33;72.43
83246;BME280;73140;46.754;17.714;2024-02-16T08:30:50;100192.28;;;9.51;72.18
83246;BME280;73140;46.754;17.714;2024-02-16T08:33:16;100224.75;;;9.84;72.55
83246;BME280;73140;46.754;17.714;2024-02-16T08:35:42;100228.75;;;10.05;71.86
83246;BME280;73140;46.754;17.714;2024-02-16T08:38:09;100201.91;;;9.49;70.65
83246;BME280;73140;46.754;17.714;2024-02-16T08:40:36;100231.28;;;10.00;72.70
83246;BME280;73140;46.754;17.714;2024-02-16T08:43:02;100180.63;;;9.80;70.22
83246;BME280;73140;46.754;17.714;2024-02-16T08:45:28;100223.97;;;10.26;71.33
83246;BME280;73140;46.754;17.714;2024-02-16T08:47:55;100174.19;;;10.07;71.35
83246;BME280;73140;46.754;17.714;2024-02-16T08:50:23;100187.75;;;10.23;70.87
83246;BME280;73140;46.754;17.714;2024-02-16T08:52:49;100224.72;;;10.62;68.71
83246;BME280;73140;46.754;17.714;2024-02-16T08:55:17;100169.72;;;10.46;70.15
83246;BME280;73140;46.754;17.714;2024-02-16T08:57:43;100226.13;;;10.90;69.11
83246;BME280;73140;46.754;17.714;2024-02-16T09:00:10;100225.75;;;11.17;68.23
83246;BME280;73140;46.754;17.714;2024-02-16T09:02:39;100184.69;;;10.92;67.30
83246;BME280;73140;46.754;17.714;2024-02-16T09:05:06;100140.56;;;10.89;67.78
83246;BME280;73140;46.754;17.714;2024-02-16T09:07:32;100210.31;;;11.44;66.14
83246;BME280;73140;46.754;17.714;2024-02-16T09:09:58;100187.19;;;11.34;67.14
83246;BME280;73140;46.754;17.714;2024-02-16T09:12:25;100177.84;;;11.56;65.13
83246;BME280;73140;46.754;17.714;2024-02-16T09:14:51;100222.31;;;11.75;65.22
83246;BME280;73140;46.754;17.714;2024-02-16T09:17:17;100238.88;;;11.63;65.84
83246;BME280;73140;46.754;17.714;2024-02-16T09:19:45;100238.31;;;11.79;67.00
83246;BME280;73140;46.754;17.714;2024-02-16T09:22:12;100201.59;;;11.51;67.20
83246;BME280;73140;46.754;17.714;2024-02-16T09:24:38;100177.75;;;11.51;66.42
83246;BME280;73140;46.754;17.714;2024-02-16T09:27:04;100236.78;;;11.95;67.89
83246;BME280;73140;46.754;17.714;2024-02-16T09:29:32;100230.53;;;11.93;65.77
83246;BME280;73140;46.754;17.714;2024-02-16T09:32:01;100187.94;;;11.79;62.21
83246;BME280;73140;46.754;17.714;2024-02-16T09:34:27;100140.84;;;11.65;60.12
83246;BME280;73140;46.754;17.714;2024-02-16T09:36:53;100198.94;;;12.07;62.74
83246;BME280;73140;46.754;17.714;2024-02-16T09:39:20;100177.81;;;12.14;62.02
83246;BME280;73140;46.754;17.714;2024-02-16T09:41:50;100234.03;;;12.54;61.46
83246;BME280;73140;46.754;17.714;2024-02-16T09:44:20;100183.31;;;12.31;60.56
83246;BME280;73140;46.754;17.714;2024-02-16T09:46:47;100230.34;;;12.44;60.82
83246;BME280;73140;46.754;17.714;2024-02-16T09:49:14;100220.59;;;12.43;59.77
83246;BME280;73140;46.754;17.714;2024-02-16T09:51:40;100243.84;;;12.62;60.18
83246;BME280;73140;46.754;17.714;2024-02-16T09:54:06;100239.66;;;12.81;60.05
83246;BME280;73140;46.754;17.714;2024-02-16T09:56:33;100203.22;;;12.68;61.19
83246;BME280;73140;46.754;17.714;2024-02-16T09:58:59;100199.78;;;12.76;60.14
83246;BME280;73140;46.754;17.714;2024-02-16T10:01:26;100179.47;;;12.80;58.41
83246;BME280;73140;46.754;17.714;2024-02-16T10:03:53;100191.16;;;13.02;57.49
83246;BME280;73140;46.754;17.714;2024-02-16T10:06:19;100178.81;;;13.07;57.06
83246;BME280;73140;46.754;17.714;2024-02-16T10:08:48;100164.59;;;12.99;57.64
83246;BME280;73140;46.754;17.714;2024-02-16T10:11:16;100255.28;;;13.32;57.19
83246;BME280;73140;46.754;17.714;2024-02-16T10:13:42;100173.66;;;13.19;57.13
83246;BME280;73140;46.754;17.714;2024-02-16T10:16:09;100192.41;;;13.33;56.54
83246;BME280;73140;46.754;17.714;2024-02-16T10:18:37;100218.28;;;13.58;56.13
83246;BME280;73140;46.754;17.714;2024-02-16T10:21:05;100198.47;;;13.19;56.08
83246;BME280;73140;46.754;17.714;2024-02-16T10:23:31;100199.47;;;13.34;57.22
83246;BME280;73140;46.754;17.714;2024-02-16T10:25:58;100228.00;;;13.54;56.92
83246;BME280;73140;46.754;17.714;2024-02-16T10:28:28;100217.44;;;13.63;58.35
83246;BME280;73140;46.754;17.714;2024-02-16T10:30:59;100197.06;;;13.68;57.66
83246;BME280;73140;46.754;17.714;2024-02-16T10:33:31;100142.75;;;13.27;56.95
83246;BME280;73140;46.754;17.714;2024-02-16T10:35:58;100157.94;;;13.49;56.97
83246;BME280;73140;46.754;17.714;2024-02-16T10:38:27;100158.00;;;13.52;56.96
83246;BME280;73140;46.754;17.714;2024-02-16T10:40:56;100202.66;;;14.03;58.06
83246;BME280;73140;46.754;17.714;2024-02-16T10:43:24;100177.75;;;14.00;58.23
83246;BME280;73140;46.754;17.714;2024-02-16T10:45:51;100195.56;;;14.11;56.24
83246;BME280;73140;46.754;17.714;2024-02-16T10:48:19;100188.53;;;14.21;55.84
83246;BME280;73140;46.754;17.714;2024-02-16T10:50:45;100197.38;;;14.20;55.81
83246;BME280;73140;46.754;17.714;2024-02-16T10:53:19;100192.13;;;14.32;55.30
83246;BME280;73140;46.754;17.714;2024-02-16T10:55:49;100181.41;;;14.17;55.77
83246;BME280;73140;46.754;17.714;2024-02-16T10:58:16;100157.44;;;14.12;55.93
83246;BME280;73140;46.754;17.714;2024-02-16T11:00:53;100114.88;;;14.12;55.82
83246;BME280;73140;46.754;17.714;2024-02-16T11:03:22;100153.19;;;14.49;53.28
83246;BME280;73140;46.754;17.714;2024-02-16T11:05:50;100115.91;;;14.43;55.17
83246;BME280;73140;46.754;17.714;2024-02-16T11:08:17;100169.22;;;14.75;54.44
83246;BME280;73140;46.754;17.714;2024-02-16T11:10:58;100141.66;;;14.55;54.31
83246;BME280;73140;46.754;17.714;2024-02-16T11:13:24;100083.03;;;14.34;55.16
83246;BME280;73140;46.754;17.714;2024-02-16T11:15:56;100152.34;;;14.64;54.06
83246;BME280;73140;46.754;17.714;2024-02-16T11:18:23;100164.75;;;14.63;53.66
83246;BME280;73140;46.754;17.714;2024-02-16T11:20:49;100131.91;;;14.58;55.36
83246;BME280;73140;46.754;17.714;2024-02-16T11:23:15;100153.28;;;14.89;53.74
83246;BME280;73140;46.754;17.714;2024-02-16T11:25:50;100142.56;;;14.60;55.20
83246;BME280;73140;46.754;17.714;2024-02-16T11:28:19;100111.53;;;14.77;54.64
83246;BME280;73140;46.754;17.714;2024-02-16T11:30:45;100098.19;;;14.66;54.54
83246;BME280;73140;46.754;17.714;2024-02-16T11:33:13;100136.41;;;14.91;54.19
83246;BME280;73140;46.754;17.714;2024-02-16T11:35:40;100160.41;;;14.93;53.65
83246;BME280;73140;46.754;17.714;2024-02-16T11:38:07;100057.28;;;14.31;53.95
83246;BME280;73140;46.754;17.714;2024-02-16T11:40:33;100148.84;;;14.92;55.85
83246;BME280;73140;46.754;17.714;2024-02-16T11:43:00;100148.00;;;15.13;53.96
83246;BME280;73140;46.754;17.714;2024-02-16T11:45:28;100158.63;;;15.04;53.27
83246;BME280;73140;46.754;17.714;2024-02-16T11:48:05;100139.09;;;15.15;54.28
83246;BME280;73140;46.754;17.714;2024-02-16T11:50:31;100131.09;;;15.00;53.65
83246;BME280;73140;46.754;17.714;2024-02-16T11:52:57;100080.47;;;14.68;53.59
83246;BME280;73140;46.754;17.714;2024-02-16T11:55:23;100146.19;;;15.06;54.72
83246;BME280;73140;46.754;17.714;2024-02-16T11:57:50;100113.31;;;14.87;53.91
83246;BME280;73140;46.754;17.714;2024-02-16T12:00:16;100140.88;;;15.20;55.09
83246;BME280;73140;46.754;17.714;2024-02-16T12:02:44;100116.00;;;15.13;54.58
83246;BME280;73140;46.754;17.714;2024-02-16T12:05:13;100111.56;;;15.15;53.82
83246;BME280;73140;46.754;17.714;2024-02-16T12:07:40;100090.22;;;14.88;52.79
83246;BME280;73140;46.754;17.714;2024-02-16T12:10:07;100120.44;;;15.11;53.10
83246;BME280;73140;46.754;17.714;2024-02-16T12:12:33;100069.81;;;14.87;53.57
83246;BME280;73140;46.754;17.714;2024-02-16T12:15:00;100136.44;;;15.25;54.47
83246;BME280;73140;46.754;17.714;2024-02-16T12:17:26;100068.03;;;14.89;54.13
83246;BME280;73140;46.754;17.714;2024-02-16T12:19:54;100115.09;;;15.03;53.01
83246;BME280;73140;46.754;17.714;2024-02-16T12:22:21;100106.22;;;15.03;54.12
83246;BME280;73140;46.754;17.714;2024-02-16T12:24:47;100130.19;;;15.03;54.62
83246;BME280;73140;46.754;17.714;2024-02-16T12:27:14;100126.66;;;15.22;55.10
83246;BME280;73140;46.754;17.714;2024-02-16T12:29:43;100110.66;;;15.07;53.56
83246;BME280;73140;46.754;17.714;2024-02-16T12:32:09;100123.97;;;15.25;52.37
83246;BME280;73140;46.754;17.714;2024-02-16T12:34:35;100099.13;;;15.15;54.57
83246;BME280;73140;46.754;17.714;2024-02-16T12:37:06;100095.56;;;15.23;54.63
83246;BME280;73140;46.754;17.714;2024-02-16T12:39:36;100094.66;;;15.34;54.08
83246;BME280;73140;46.754;17.714;2024-02-16T12:42:03;100034.28;;;15.00;55.25
83246;BME280;73140;46.754;17.714;2024-02-16T12:44:29;100108.84;;;15.42;53.05
83246;BME280;73140;46.754;17.714;2024-02-16T12:46:56;100116.00;;;15.31;53.13